首页
METAR-TAF:

METAR-TAF

机场 :

布加勒斯特伯尼亚萨-奥雷尔·弗拉伊库国际机场

布加勒斯特Băneasa, 罗马尼亚

纬度: 44-30N, 经度: 026-08E, 海拔: 90米

当前天气观测

该预报发布于38分钟前的01:30 UTC
风速3节,风向西转西北
温度 10°C
湿度 82%
气压 1010 hPa
能见度10公里或以上
1500米以下无云,无积雨云

METAR: LRBS 010130Z 29003KT CAVOK 10/07 Q1010 NOSIG

时间: 05:08 (02:08 UTC)

预报

该预报发布于3小时和8分钟前的23:00 UTC
预报有效从01日的 00点(UTC)到 02日的 00点(UTC)
风速8节,风向西
能见度10公里或以上
1500米以下无云,无积雨云
成为
从 01日的 13点(UTC)到 01日的 15点(UTC)
散云层高于4000英尺, 积雨云.
短暂存在
从 01日的 15点(UTC)到 01日的 20点(UTC)
风速15节,风向多变,有时为25节阵风
能見度: 5000
雷暴, 雨
成为
从 01日的 20点(UTC)到 01日的 22点(UTC)

TAF: LRBS 312300Z 0100/0200 26008KT CAVOK BECMG 0113/0115 SCT040CB TEMPO 0115/0120 VRB15G25KT 5000 TSRA BECMG 0120/0122 NSC

超过4000个机场的气象观测和天气预报(METAR&TAF报告)。

可查询的气象台以黄色和红色小点在地图上表示。

将鼠标移到小点上方,可查看气象台名称。

然后点击查看天气观测和预报。

如需切换地图:点击带黑十字的绿色按钮放大地图;点击带横线的绿色按钮缩小地图;或者点击绿色箭头查看邻近地区的地图。


METAR-TAF: